createdAt,value
2018-01-15T08:02:48.377Z,95.45
2018-01-15T08:03:57.204Z,95.59
2018-01-15T08:05:06.029Z,95.59
2018-01-15T08:06:14.861Z,95.4
2018-01-15T08:07:23.961Z,94.65
2018-01-15T08:08:32.787Z,94.84
2018-01-15T08:09:41.617Z,95.12
2018-01-15T08:10:50.713Z,95.12
2018-01-15T08:11:59.637Z,95.5
2018-01-15T08:13:08.466Z,95.4
2018-01-15T08:14:17.288Z,95.21
2018-01-15T08:15:26.113Z,95.31
2018-01-15T08:16:34.939Z,95.4
2018-01-15T08:17:43.765Z,95.12
2018-01-15T08:18:52.590Z,95.59
2018-01-15T08:20:01.414Z,95.97
2018-01-15T08:21:10.240Z,95.5
2018-01-15T08:22:19.071Z,95.59
2018-01-15T08:23:27.891Z,95.59
2018-01-15T08:24:36.716Z,95.5
2018-01-15T08:25:45.543Z,95.21
2018-01-15T08:26:54.366Z,95.4
2018-01-15T08:28:03.225Z,95.21
2018-01-15T08:29:12.170Z,95.31
2018-01-15T08:30:20.992Z,95.4
2018-01-15T08:31:29.821Z,95.12
2018-01-15T08:32:38.647Z,95.31
2018-01-15T08:33:47.470Z,95.59
2018-01-15T08:34:56.344Z,96.07
2018-01-15T08:36:05.171Z,95.4
2018-01-15T08:37:13.995Z,95.12
2018-01-15T08:38:22.819Z,95.88
2018-01-15T08:39:31.645Z,95.4
2018-01-15T08:40:40.468Z,95.12
2018-01-15T08:41:49.292Z,95.21
2018-01-15T08:42:58.392Z,95.5
2018-01-15T08:44:07.219Z,95.69
2018-01-15T08:45:16.042Z,96.26
2018-01-15T08:46:25.117Z,96.16
2018-01-15T08:47:33.942Z,95.69
2018-01-15T08:48:42.768Z,95.5
2018-01-15T08:49:51.593Z,95.5
2018-01-15T08:51:00.418Z,95.4
2018-01-15T08:52:09.437Z,96.16
2018-01-15T08:53:18.263Z,96.07
2018-01-15T08:54:27.088Z,95.78
2018-01-15T08:55:35.912Z,95.97
2018-01-15T08:56:44.738Z,95.69
2018-01-15T08:57:53.563Z,96.16
2018-01-15T08:59:02.684Z,95.78
2018-01-15T09:00:11.509Z,96.07
2018-01-15T09:01:20.333Z,95.78
2018-01-15T09:02:29.159Z,95.31
2018-01-15T09:03:38.136Z,96.07
2018-01-15T09:04:46.961Z,96.16
2018-01-15T09:05:55.788Z,96.16
2018-01-15T09:07:04.615Z,95.78
2018-01-15T09:08:13.443Z,95.78
2018-01-15T09:09:22.466Z,95.78
2018-01-15T09:10:31.291Z,96.35
2018-01-15T09:11:40.114Z,96.26
2018-01-15T09:12:48.941Z,95.97
2018-01-15T09:13:57.767Z,95.78
2018-01-15T09:15:07.019Z,95.5
2018-01-15T09:16:15.843Z,95.88
2018-01-15T09:17:24.670Z,96.12
2018-01-15T09:18:33.497Z,96.07
2018-01-15T09:19:42.321Z,95.78
2018-01-15T09:20:51.246Z,96.26
2018-01-15T09:22:00.072Z,96.26
2018-01-15T09:23:08.898Z,95.97
2018-01-15T09:24:17.724Z,95.83
2018-01-15T09:25:26.550Z,96.21
2018-01-15T09:26:35.475Z,96.31
2018-01-15T09:27:44.303Z,96.02
2018-01-15T09:28:53.128Z,95.55
2018-01-15T09:30:01.957Z,96.12
2018-01-15T09:31:10.783Z,96.21
2018-01-15T09:32:19.660Z,96.02
2018-01-15T09:33:28.486Z,95.83
2018-01-15T09:34:37.311Z,96.12
2018-01-15T09:35:46.409Z,96.12
2018-01-15T09:36:55.506Z,96.69
2018-01-15T09:38:04.732Z,96.21
2018-01-15T09:39:13.559Z,96.31
2018-01-15T09:40:22.385Z,96.12
2018-01-15T09:41:31.209Z,96.02
2018-01-15T09:42:40.035Z,95.93
2018-01-15T09:43:48.911Z,96.02
2018-01-15T09:44:57.738Z,95.83
2018-01-15T09:46:06.578Z,96.31
2018-01-15T09:47:15.390Z,95.93
2018-01-15T09:48:24.214Z,95.93
2018-01-15T09:49:33.089Z,96.12
2018-01-15T09:50:41.914Z,96.21
2018-01-15T09:51:50.740Z,96.21
2018-01-15T09:52:59.567Z,96.12
2018-01-15T09:54:08.446Z,96.12
2018-01-15T09:55:17.467Z,96.12
2018-01-15T09:56:26.294Z,96.69
2018-01-15T09:57:35.120Z,96.59
2018-01-15T09:58:43.947Z,96.69
2018-01-15T09:59:52.773Z,96.69
2018-01-15T10:01:01.703Z,96.69
2018-01-15T10:02:10.524Z,96.4
2018-01-15T10:03:19.352Z,96.69
2018-01-15T10:04:28.449Z,96.5
2018-01-15T10:05:37.275Z,96.69
2018-01-15T10:06:46.423Z,96.31
2018-01-15T10:07:55.255Z,96.88
2018-01-15T10:09:04.358Z,96.5
2018-01-15T10:10:13.179Z,96.31
2018-01-15T10:11:22.005Z,96.31
2018-01-15T10:12:31.135Z,96.69
2018-01-15T10:13:40.236Z,96.83
2018-01-15T10:14:49.332Z,97.11
2018-01-15T10:15:58.159Z,96.83
2018-01-15T10:17:06.986Z,97.11
2018-01-15T10:18:15.914Z,96.92
2018-01-15T10:19:24.745Z,97.02
2018-01-15T10:20:33.566Z,96.55
2018-01-15T10:21:42.400Z,97.02
2018-01-15T10:22:51.503Z,97.21
2018-01-15T10:24:00.328Z,97.11
2018-01-15T10:25:09.155Z,97.68
2018-01-15T10:26:17.982Z,97.4
2018-01-15T10:27:26.861Z,96.92
2018-01-15T10:28:35.635Z,97.49
2018-01-15T10:29:44.609Z,97.21
2018-01-15T10:30:53.437Z,97.49
2018-01-15T10:32:02.267Z,97.59
2018-01-15T10:33:11.092Z,97.3
2018-01-15T10:34:19.920Z,97.59
2018-01-15T10:35:28.747Z,97.59
2018-01-15T10:36:37.572Z,97.21
2018-01-15T10:37:46.397Z,97.4
2018-01-15T10:38:55.224Z,97.4
2018-01-15T10:40:04.053Z,97.59
2018-01-15T10:41:13.030Z,97.49
2018-01-15T10:42:21.856Z,97.49
2018-01-15T10:43:30.681Z,97.3
2018-01-15T10:44:39.513Z,97.78
2018-01-15T10:45:48.338Z,97.59
2018-01-15T10:46:57.214Z,97.3
2018-01-15T10:48:06.041Z,97.78
2018-01-15T10:49:14.868Z,97.3
2018-01-15T10:50:23.695Z,97.59
2018-01-15T10:51:33.083Z,97.4
2018-01-15T10:52:41.906Z,97.68
2018-01-15T10:53:50.734Z,97.3
2018-01-15T10:54:59.837Z,97.11
2018-01-15T10:56:08.663Z,97.78
2018-01-15T10:57:17.490Z,97.59
2018-01-15T10:58:26.416Z,97.21
2018-01-15T10:59:35.239Z,97.49
2018-01-15T11:00:44.065Z,97.78
2018-01-15T11:01:52.892Z,97.4
2018-01-15T11:03:01.720Z,97.49
2018-01-15T11:04:10.698Z,97.59
2018-01-15T11:05:19.525Z,97.78
2018-01-15T11:06:28.351Z,97.3
2018-01-15T11:07:37.179Z,97.49
2018-01-15T11:08:46.026Z,97.64
2018-01-15T11:09:54.883Z,97.83
2018-01-15T11:11:03.713Z,98.3
2018-01-15T11:12:12.543Z,98.21
2018-01-15T11:13:21.370Z,98.39
2018-01-15T11:14:30.199Z,97.83
2018-01-15T11:15:39.426Z,98.39
2018-01-15T11:16:48.278Z,98.3
2018-01-15T11:17:57.083Z,98.39
2018-01-15T11:19:05.910Z,98.3
2018-01-15T11:20:14.736Z,98.58
2018-01-15T11:21:23.662Z,98.49
2018-01-15T11:22:32.494Z,98.49
2018-01-15T11:23:41.320Z,98.77
2018-01-15T11:24:50.149Z,98.49
2018-01-15T11:25:58.977Z,98.39
2018-01-15T11:27:07.856Z,99.15
2018-01-15T11:28:16.682Z,99.15
2018-01-15T11:29:25.509Z,98.96
2018-01-15T11:30:34.338Z,99.34
2018-01-15T11:31:43.167Z,99.44
2018-01-15T11:32:52.150Z,99.53
2018-01-15T11:34:01.247Z,99.63
2018-01-15T11:35:10.349Z,99.25
2018-01-15T11:36:19.175Z,99.53
2018-01-15T11:37:28.006Z,99.25
2018-01-15T11:38:36.983Z,99.34
2018-01-15T11:39:45.808Z,99.49
2018-01-15T11:40:54.956Z,99.82
2018-01-15T11:42:03.783Z,99.53
2018-01-15T11:43:12.612Z,99.53
2018-01-15T11:44:21.539Z,99.63
2018-01-15T11:45:30.368Z,99.44
2018-01-15T11:46:39.195Z,99.63
2018-01-15T11:47:48.026Z,99.63
2018-01-15T11:48:56.856Z,99.53
2018-01-15T11:50:05.687Z,99.91
2018-01-15T11:51:14.784Z,99.72
2018-01-15T11:52:23.886Z,99.77
2018-01-15T11:53:32.990Z,99.68
2018-01-15T11:54:41.818Z,99.72
2018-01-15T11:55:50.697Z,99.99
2018-01-15T11:56:59.524Z,99.99
2018-01-15T11:58:08.352Z,99.77
2018-01-15T11:59:17.261Z,99.99
2018-01-15T12:00:26.087Z,99.87
2018-01-15T12:01:35.166Z,99.99
2018-01-15T12:02:43.992Z,99.99
2018-01-15T12:03:52.820Z,99.99
2018-01-15T12:05:01.657Z,99.99
2018-01-15T12:06:10.530Z,99.99
2018-01-15T12:07:19.365Z,99.99
2018-01-15T12:08:28.495Z,99.99
2018-01-15T12:09:37.380Z,99.99
2018-01-15T12:10:46.223Z,99.96
2018-01-15T12:11:55.087Z,99.96
2018-01-15T12:13:04.119Z,99.99
2018-01-15T12:14:12.959Z,99.99
2018-01-15T12:15:21.845Z,99.99
2018-01-15T12:16:30.715Z,99.96
2018-01-15T12:17:39.614Z,99.99
2018-01-15T12:18:48.746Z,99.99
2018-01-15T12:19:57.601Z,99.99
2018-01-15T12:21:06.711Z,99.99
2018-01-15T12:22:15.557Z,99.99
2018-01-15T12:23:24.384Z,99.99
2018-01-15T12:24:33.562Z,99.99
2018-01-15T12:25:42.598Z,99.99
2018-01-15T12:26:51.477Z,99.96
2018-01-15T12:28:00.326Z,99.99
2018-01-15T12:29:09.204Z,99.99
2018-01-15T12:30:18.183Z,99.99
2018-01-15T12:31:27.066Z,99.99
2018-01-15T12:32:35.915Z,99.96
2018-01-15T12:33:44.754Z,99.99
2018-01-15T12:34:53.587Z,99.99
2018-01-15T12:36:03.391Z,99.99
2018-01-15T12:37:12.338Z,99.99
2018-01-15T12:38:21.169Z,99.99
2018-01-15T12:39:29.998Z,99.99
2018-01-15T12:40:38.826Z,99.99
2018-01-15T12:41:47.754Z,99.96
2018-01-15T12:42:56.612Z,99.99
2018-01-15T12:44:05.440Z,99.99
2018-01-15T12:45:14.269Z,99.99
2018-01-15T12:46:23.095Z,99.99
2018-01-15T12:47:32.488Z,99.99
2018-01-15T12:48:41.344Z,99.99
2018-01-15T12:49:50.173Z,99.99
2018-01-15T12:50:59.054Z,99.99
2018-01-15T12:52:07.892Z,99.99
2018-01-15T12:53:16.820Z,99.96
2018-01-15T12:54:25.695Z,99.99
2018-01-15T12:55:34.540Z,99.99
2018-01-15T12:56:43.367Z,99.99
2018-01-15T12:57:52.194Z,99.96
2018-01-15T12:59:01.406Z,99.99
2018-01-15T13:00:10.234Z,99.99
2018-01-15T13:01:19.064Z,99.99
2018-01-15T13:02:27.984Z,99.96
2018-01-15T13:03:36.867Z,99.99
2018-01-15T13:04:45.871Z,99.99
2018-01-15T13:05:54.702Z,99.99
2018-01-15T13:07:03.533Z,99.99
2018-01-15T13:08:12.359Z,99.99
2018-01-15T13:09:21.186Z,99.99
2018-01-15T13:10:30.172Z,99.99
2018-01-15T13:11:38.994Z,99.99
2018-01-15T13:12:47.831Z,99.99
2018-01-15T13:13:56.653Z,99.99
2018-01-15T13:15:05.484Z,99.99
2018-01-15T13:16:14.614Z,99.99
2018-01-15T13:17:23.444Z,99.99
2018-01-15T13:18:32.270Z,99.99
2018-01-15T13:19:41.105Z,99.99
2018-01-15T13:20:50.202Z,99.99
2018-01-15T13:21:59.031Z,99.99
2018-01-15T13:23:08.137Z,99.99
2018-01-15T13:24:17.007Z,99.99
2018-01-15T13:25:25.794Z,99.99
2018-01-15T13:26:34.621Z,99.99
2018-01-15T13:27:43.499Z,99.99
2018-01-15T13:28:52.327Z,99.99
2018-01-15T13:30:01.220Z,99.99
2018-01-15T13:31:09.982Z,99.99
2018-01-15T13:32:18.810Z,99.99
2018-01-15T13:33:27.638Z,99.99
2018-01-15T13:34:36.466Z,99.99
2018-01-15T13:35:45.294Z,99.99
2018-01-15T13:36:54.121Z,99.99
2018-01-15T13:38:02.955Z,99.99
2018-01-15T13:39:11.832Z,99.99
2018-01-15T13:40:20.660Z,99.99
2018-01-15T13:41:29.489Z,99.99
2018-01-15T13:42:38.317Z,99.99
2018-01-15T13:43:47.145Z,99.99
2018-01-15T13:44:56.083Z,99.99
2018-01-15T13:46:04.915Z,99.99
2018-01-15T13:47:13.745Z,99.99
2018-01-15T13:48:22.575Z,99.99
2018-01-15T13:49:31.413Z,99.99
2018-01-15T13:50:40.295Z,99.99
2018-01-15T13:51:49.401Z,99.99
2018-01-15T13:52:58.250Z,99.99
2018-01-15T13:54:07.076Z,99.99
2018-01-15T13:55:15.909Z,99.99
2018-01-15T13:56:25.741Z,99.99
2018-01-15T13:57:34.575Z,99.99
2018-01-15T13:58:43.405Z,99.99
2018-01-15T13:59:52.236Z,99.99
2018-01-15T14:01:01.078Z,99.99
2018-01-15T14:02:10.261Z,99.99
2018-01-15T14:03:19.117Z,99.99
2018-01-15T14:04:28.023Z,99.99
2018-01-15T14:05:36.849Z,99.99
2018-01-15T14:06:45.679Z,99.99
2018-01-15T14:07:54.506Z,99.99
2018-01-15T14:09:03.611Z,99.99
2018-01-15T14:10:13.003Z,99.99
2018-01-15T14:11:21.836Z,99.99
2018-01-15T14:12:30.670Z,99.99
2018-01-15T14:13:39.749Z,99.99
2018-01-15T14:14:48.578Z,99.99
2018-01-15T14:15:57.406Z,99.99
2018-01-15T14:17:06.234Z,99.99
2018-01-15T14:18:15.061Z,99.99
2018-01-15T14:19:24.190Z,99.99
2018-01-15T14:20:33.019Z,99.99
2018-01-15T14:21:41.843Z,99.99
2018-01-15T14:22:50.672Z,99.99
2018-01-15T14:23:59.501Z,99.99
2018-01-15T14:25:08.632Z,99.99
2018-01-15T14:26:17.457Z,99.99
2018-01-15T14:27:26.289Z,99.99
2018-01-15T14:28:35.118Z,99.99
2018-01-15T14:29:43.945Z,99.99
2018-01-15T14:30:52.922Z,99.99
2018-01-15T14:32:01.749Z,99.99
2018-01-15T14:33:10.874Z,99.99
2018-01-15T14:34:19.998Z,99.99
2018-01-15T14:35:29.870Z,99.99
2018-01-15T14:36:39.106Z,99.99
2018-01-15T14:37:48.452Z,99.99
2018-01-15T14:38:57.492Z,99.99
2018-01-15T14:40:06.760Z,99.99
2018-01-15T14:41:15.662Z,99.99
2018-01-15T14:42:24.980Z,99.99
2018-01-15T14:43:34.241Z,99.99
2018-01-15T14:44:43.501Z,99.99
2018-01-15T14:45:52.631Z,99.99
2018-01-15T14:47:01.469Z,99.99
2018-01-15T14:48:10.449Z,99.99
2018-01-15T14:49:19.277Z,99.99
2018-01-15T14:50:28.600Z,99.99
2018-01-15T14:51:37.428Z,99.99
2018-01-15T14:52:46.267Z,99.99
2018-01-15T14:53:55.246Z,99.99
2018-01-15T14:55:04.330Z,99.99
2018-01-15T14:56:13.194Z,99.99
2018-01-15T14:57:22.294Z,99.99
2018-01-15T14:58:31.415Z,99.99
2018-01-15T14:59:40.544Z,99.99
2018-01-15T15:00:49.370Z,99.99
2018-01-15T15:01:58.334Z,99.99
2018-01-15T15:03:07.293Z,99.99
2018-01-15T15:04:16.441Z,99.99
2018-01-15T15:05:25.269Z,99.99
2018-01-15T15:06:34.153Z,99.99
2018-01-15T15:07:43.204Z,99.99
2018-01-15T15:08:52.265Z,99.99
2018-01-15T15:10:01.618Z,99.99
2018-01-15T15:11:10.475Z,99.99
2018-01-15T15:12:19.301Z,99.99
2018-01-15T15:14:36.971Z,99.99
2018-01-15T15:15:45.801Z,99.99
2018-01-15T15:16:55.257Z,99.99
2018-01-15T15:18:04.335Z,99.99
2018-01-15T15:19:13.214Z,99.99
2018-01-15T15:20:22.057Z,99.99
2018-01-15T15:21:30.888Z,99.58
2018-01-15T15:22:39.866Z,99.49
